sensor_id;sensor_type;location;lat;lon;timestamp;temperature;humidity
21353;DHT22;10834;52.268;6.770;2023-04-28T00:01:48;9.40;80.50
21353;DHT22;10834;52.268;6.770;2023-04-28T00:04:35;9.40;83.80
21353;DHT22;10834;52.268;6.770;2023-04-28T00:07:21;9.40;83.50
21353;DHT22;10834;52.268;6.770;2023-04-28T00:10:07;9.40;86.40
21353;DHT22;10834;52.268;6.770;2023-04-28T00:12:54;9.40;88.30
21353;DHT22;10834;52.268;6.770;2023-04-28T00:15:40;9.30;87.20
21353;DHT22;10834;52.268;6.770;2023-04-28T00:18:26;9.30;86.20
21353;DHT22;10834;52.268;6.770;2023-04-28T00:21:13;9.30;88.40
21353;DHT22;10834;52.268;6.770;2023-04-28T00:23:59;9.20;86.50
21353;DHT22;10834;52.268;6.770;2023-04-28T00:26:45;9.20;88.00
21353;DHT22;10834;52.268;6.770;2023-04-28T00:29:31;9.20;88.40
21353;DHT22;10834;52.268;6.770;2023-04-28T00:32:17;9.20;91.90
21353;DHT22;10834;52.268;6.770;2023-04-28T00:35:03;9.10;91.50
21353;DHT22;10834;52.268;6.770;2023-04-28T00:37:49;9.10;92.70
21353;DHT22;10834;52.268;6.770;2023-04-28T00:40:37;9.20;93.50
21353;DHT22;10834;52.268;6.770;2023-04-28T00:43:23;9.10;91.20
21353;DHT22;10834;52.268;6.770;2023-04-28T00:46:12;9.10;90.10
21353;DHT22;10834;52.268;6.770;2023-04-28T00:49:03;9.00;90.40
21353;DHT22;10834;52.268;6.770;2023-04-28T00:51:50;8.90;91.00
21353;DHT22;10834;52.268;6.770;2023-04-28T00:54:36;8.90;91.00
21353;DHT22;10834;52.268;6.770;2023-04-28T00:57:22;8.90;90.50
21353;DHT22;10834;52.268;6.770;2023-04-28T01:00:09;8.80;91.50
21353;DHT22;10834;52.268;6.770;2023-04-28T01:02:56;8.80;90.50
21353;DHT22;10834;52.268;6.770;2023-04-28T01:05:43;8.80;90.80
21353;DHT22;10834;52.268;6.770;2023-04-28T01:08:30;8.70;90.20
21353;DHT22;10834;52.268;6.770;2023-04-28T01:11:17;8.70;91.10
21353;DHT22;10834;52.268;6.770;2023-04-28T01:14:02;8.70;91.80
21353;DHT22;10834;52.268;6.770;2023-04-28T01:16:49;8.70;90.20
21353;DHT22;10834;52.268;6.770;2023-04-28T01:19:35;8.60;90.80
21353;DHT22;10834;52.268;6.770;2023-04-28T01:22:21;8.60;91.30
21353;DHT22;10834;52.268;6.770;2023-04-28T01:25:07;8.50;92.80
21353;DHT22;10834;52.268;6.770;2023-04-28T01:27:53;8.40;94.10
21353;DHT22;10834;52.268;6.770;2023-04-28T01:30:39;8.30;93.30
21353;DHT22;10834;52.268;6.770;2023-04-28T01:33:25;8.30;93.00
21353;DHT22;10834;52.268;6.770;2023-04-28T01:36:11;8.30;94.60
21353;DHT22;10834;52.268;6.770;2023-04-28T01:38:57;8.30;93.60
21353;DHT22;10834;52.268;6.770;2023-04-28T01:41:43;8.20;94.50
21353;DHT22;10834;52.268;6.770;2023-04-28T01:44:29;8.20;94.10
21353;DHT22;10834;52.268;6.770;2023-04-28T01:47:15;8.10;94.50
21353;DHT22;10834;52.268;6.770;2023-04-28T01:50:01;8.10;96.10
21353;DHT22;10834;52.268;6.770;2023-04-28T01:52:47;8.10;95.50
21353;DHT22;10834;52.268;6.770;2023-04-28T01:55:33;8.00;96.60
21353;DHT22;10834;52.268;6.770;2023-04-28T01:58:19;8.10;96.80
21353;DHT22;10834;52.268;6.770;2023-04-28T02:01:06;8.20;96.70
21353;DHT22;10834;52.268;6.770;2023-04-28T02:03:52;8.20;96.80
21353;DHT22;10834;52.268;6.770;2023-04-28T02:06:39;8.20;96.70
21353;DHT22;10834;52.268;6.770;2023-04-28T02:09:25;8.20;97.60
21353;DHT22;10834;52.268;6.770;2023-04-28T02:12:12;8.20;97.40
21353;DHT22;10834;52.268;6.770;2023-04-28T02:14:58;8.20;97.80
21353;DHT22;10834;52.268;6.770;2023-04-28T02:17:45;8.20;99.90
21353;DHT22;10834;52.268;6.770;2023-04-28T02:20:32;8.30;99.90
21353;DHT22;10834;52.268;6.770;2023-04-28T02:23:18;8.30;99.90
21353;DHT22;10834;52.268;6.770;2023-04-28T02:26:04;8.30;98.60
21353;DHT22;10834;52.268;6.770;2023-04-28T02:28:51;8.30;98.40
21353;DHT22;10834;52.268;6.770;2023-04-28T02:31:37;8.40;98.30
21353;DHT22;10834;52.268;6.770;2023-04-28T02:34:23;8.40;97.50
21353;DHT22;10834;52.268;6.770;2023-04-28T02:37:09;8.40;97.80
21353;DHT22;10834;52.268;6.770;2023-04-28T02:39:55;8.40;98.60
21353;DHT22;10834;52.268;6.770;2023-04-28T02:42:41;8.40;97.80
21353;DHT22;10834;52.268;6.770;2023-04-28T02:45:27;8.50;97.60
21353;DHT22;10834;52.268;6.770;2023-04-28T02:48:13;8.50;98.00
21353;DHT22;10834;52.268;6.770;2023-04-28T02:51:00;8.50;97.10
21353;DHT22;10834;52.268;6.770;2023-04-28T02:53:46;8.50;96.20
21353;DHT22;10834;52.268;6.770;2023-04-28T02:56:33;8.50;96.90
21353;DHT22;10834;52.268;6.770;2023-04-28T02:59:19;8.50;96.40
21353;DHT22;10834;52.268;6.770;2023-04-28T03:02:06;8.40;96.40
21353;DHT22;10834;52.268;6.770;2023-04-28T03:04:53;8.40;96.00
21353;DHT22;10834;52.268;6.770;2023-04-28T03:07:40;8.50;96.70
21353;DHT22;10834;52.268;6.770;2023-04-28T03:10:26;8.50;96.70
21353;DHT22;10834;52.268;6.770;2023-04-28T03:13:12;8.40;96.00
21353;DHT22;10834;52.268;6.770;2023-04-28T03:15:58;8.50;96.00
21353;DHT22;10834;52.268;6.770;2023-04-28T03:18:44;8.50;96.10
21353;DHT22;10834;52.268;6.770;2023-04-28T03:21:30;8.50;98.10
21353;DHT22;10834;52.268;6.770;2023-04-28T03:24:17;8.50;96.20
21353;DHT22;10834;52.268;6.770;2023-04-28T03:27:03;8.50;96.60
21353;DHT22;10834;52.268;6.770;2023-04-28T03:29:50;8.50;97.10
21353;DHT22;10834;52.268;6.770;2023-04-28T03:32:36;8.50;96.30
21353;DHT22;10834;52.268;6.770;2023-04-28T03:35:22;8.50;96.20
21353;DHT22;10834;52.268;6.770;2023-04-28T03:38:08;8.50;96.70
21353;DHT22;10834;52.268;6.770;2023-04-28T03:40:54;8.50;96.50
21353;DHT22;10834;52.268;6.770;2023-04-28T03:43:41;8.50;96.40
21353;DHT22;10834;52.268;6.770;2023-04-28T03:46:26;8.50;96.20
21353;DHT22;10834;52.268;6.770;2023-04-28T03:49:14;8.50;97.10
21353;DHT22;10834;52.268;6.770;2023-04-28T03:52:00;8.50;96.90
21353;DHT22;10834;52.268;6.770;2023-04-28T03:54:46;8.50;97.00
21353;DHT22;10834;52.268;6.770;2023-04-28T03:57:32;8.60;97.30
21353;DHT22;10834;52.268;6.770;2023-04-28T04:00:19;8.60;96.40
21353;DHT22;10834;52.268;6.770;2023-04-28T04:03:05;8.60;98.10
21353;DHT22;10834;52.268;6.770;2023-04-28T04:05:51;8.60;98.20
21353;DHT22;10834;52.268;6.770;2023-04-28T04:08:38;8.60;98.30
21353;DHT22;10834;52.268;6.770;2023-04-28T04:11:25;8.60;98.30
21353;DHT22;10834;52.268;6.770;2023-04-28T04:14:11;8.70;99.70
21353;DHT22;10834;52.268;6.770;2023-04-28T04:16:57;8.70;99.40
21353;DHT22;10834;52.268;6.770;2023-04-28T04:19:43;8.70;99.70
21353;DHT22;10834;52.268;6.770;2023-04-28T04:22:29;8.70;99.90
21353;DHT22;10834;52.268;6.770;2023-04-28T04:25:15;8.70;99.90
21353;DHT22;10834;52.268;6.770;2023-04-28T04:28:01;8.70;99.90
21353;DHT22;10834;52.268;6.770;2023-04-28T04:30:47;8.70;99.90
21353;DHT22;10834;52.268;6.770;2023-04-28T04:33:33;8.80;99.90
21353;DHT22;10834;52.268;6.770;2023-04-28T04:36:19;8.80;99.90
21353;DHT22;10834;52.268;6.770;2023-04-28T04:39:05;8.80;99.90
21353;DHT22;10834;52.268;6.770;2023-04-28T04:41:52;8.90;99.90
21353;DHT22;10834;52.268;6.770;2023-04-28T04:44:38;8.90;99.90
21353;DHT22;10834;52.268;6.770;2023-04-28T04:47:24;8.90;99.90
21353;DHT22;10834;52.268;6.770;2023-04-28T04:50:10;9.00;99.90
21353;DHT22;10834;52.268;6.770;2023-04-28T04:52:57;9.00;99.90
21353;DHT22;10834;52.268;6.770;2023-04-28T04:55:43;9.10;99.90
21353;DHT22;10834;52.268;6.770;2023-04-28T04:58:29;9.00;99.90
21353;DHT22;10834;52.268;6.770;2023-04-28T05:01:15;9.10;99.90
21353;DHT22;10834;52.268;6.770;2023-04-28T05:04:01;9.10;99.90
21353;DHT22;10834;52.268;6.770;2023-04-28T05:06:47;9.10;99.90
21353;DHT22;10834;52.268;6.770;2023-04-28T05:09:33;9.10;99.90
21353;DHT22;10834;52.268;6.770;2023-04-28T05:12:19;9.10;99.90
21353;DHT22;10834;52.268;6.770;2023-04-28T05:15:05;9.10;99.90
21353;DHT22;10834;52.268;6.770;2023-04-28T05:17:52;9.10;99.90
21353;DHT22;10834;52.268;6.770;2023-04-28T05:20:39;9.20;99.90
21353;DHT22;10834;52.268;6.770;2023-04-28T05:23:25;9.20;99.90
21353;DHT22;10834;52.268;6.770;2023-04-28T05:26:11;9.30;99.90
21353;DHT22;10834;52.268;6.770;2023-04-28T05:28:57;9.30;99.90
21353;DHT22;10834;52.268;6.770;2023-04-28T05:31:43;9.30;99.90
21353;DHT22;10834;52.268;6.770;2023-04-28T05:34:29;9.40;99.90
21353;DHT22;10834;52.268;6.770;2023-04-28T05:37:15;9.40;99.90
21353;DHT22;10834;52.268;6.770;2023-04-28T05:40:01;9.40;99.90
21353;DHT22;10834;52.268;6.770;2023-04-28T05:42:47;9.50;99.90
21353;DHT22;10834;52.268;6.770;2023-04-28T05:45:33;9.50;99.90
21353;DHT22;10834;52.268;6.770;2023-04-28T05:48:20;9.60;99.90
21353;DHT22;10834;52.268;6.770;2023-04-28T05:51:06;9.70;99.90
21353;DHT22;10834;52.268;6.770;2023-04-28T05:53:52;9.80;99.90
21353;DHT22;10834;52.268;6.770;2023-04-28T05:56:38;9.90;99.90
21353;DHT22;10834;52.268;6.770;2023-04-28T05:59:24;10.00;99.90
21353;DHT22;10834;52.268;6.770;2023-04-28T06:02:10;10.10;99.90
21353;DHT22;10834;52.268;6.770;2023-04-28T06:04:56;10.20;99.90
21353;DHT22;10834;52.268;6.770;2023-04-28T06:07:42;10.20;99.90
21353;DHT22;10834;52.268;6.770;2023-04-28T06:10:28;10.30;99.90
21353;DHT22;10834;52.268;6.770;2023-04-28T06:13:14;10.40;99.90
21353;DHT22;10834;52.268;6.770;2023-04-28T06:16:00;10.50;99.90
21353;DHT22;10834;52.268;6.770;2023-04-28T06:18:47;10.70;99.90
21353;DHT22;10834;52.268;6.770;2023-04-28T06:21:33;10.70;99.90
21353;DHT22;10834;52.268;6.770;2023-04-28T06:24:19;10.80;99.90
21353;DHT22;10834;52.268;6.770;2023-04-28T06:27:06;10.90;99.90
21353;DHT22;10834;52.268;6.770;2023-04-28T06:29:52;10.90;99.90
21353;DHT22;10834;52.268;6.770;2023-04-28T06:32:38;10.90;99.90
21353;DHT22;10834;52.268;6.770;2023-04-28T06:35:24;11.00;99.90
21353;DHT22;10834;52.268;6.770;2023-04-28T06:38:10;11.00;99.90
21353;DHT22;10834;52.268;6.770;2023-04-28T06:40:56;11.00;99.90
21353;DHT22;10834;52.268;6.770;2023-04-28T06:43:42;10.90;99.90
21353;DHT22;10834;52.268;6.770;2023-04-28T06:46:28;10.90;99.90
21353;DHT22;10834;52.268;6.770;2023-04-28T06:49:14;10.90;99.90
21353;DHT22;10834;52.268;6.770;2023-04-28T06:52:01;10.90;99.90
21353;DHT22;10834;52.268;6.770;2023-04-28T06:54:48;10.90;99.90
21353;DHT22;10834;52.268;6.770;2023-04-28T06:57:34;11.00;99.90
21353;DHT22;10834;52.268;6.770;2023-04-28T07:00:21;11.00;99.90
21353;DHT22;10834;52.268;6.770;2023-04-28T07:03:07;11.00;99.90
21353;DHT22;10834;52.268;6.770;2023-04-28T07:05:53;11.00;99.90
21353;DHT22;10834;52.268;6.770;2023-04-28T07:08:40;10.90;99.90
21353;DHT22;10834;52.268;6.770;2023-04-28T07:11:26;10.90;99.90
21353;DHT22;10834;52.268;6.770;2023-04-28T07:14:12;10.80;99.90
21353;DHT22;10834;52.268;6.770;2023-04-28T07:16:58;10.80;99.90
21353;DHT22;10834;52.268;6.770;2023-04-28T07:19:44;10.80;99.90
21353;DHT22;10834;52.268;6.770;2023-04-28T07:22:30;10.80;99.90
21353;DHT22;10834;52.268;6.770;2023-04-28T07:25:16;10.80;99.90
21353;DHT22;10834;52.268;6.770;2023-04-28T07:28:02;10.80;99.90
21353;DHT22;10834;52.268;6.770;2023-04-28T07:30:48;10.80;99.90
21353;DHT22;10834;52.268;6.770;2023-04-28T07:33:34;10.80;99.90
21353;DHT22;10834;52.268;6.770;2023-04-28T07:36:21;10.80;99.90
21353;DHT22;10834;52.268;6.770;2023-04-28T07:39:07;10.80;99.90
21353;DHT22;10834;52.268;6.770;2023-04-28T07:41:53;10.90;99.90
21353;DHT22;10834;52.268;6.770;2023-04-28T07:44:39;11.00;99.90
21353;DHT22;10834;52.268;6.770;2023-04-28T07:47:26;11.10;99.90
21353;DHT22;10834;52.268;6.770;2023-04-28T07:50:14;11.30;99.90
21353;DHT22;10834;52.268;6.770;2023-04-28T07:53:00;11.50;99.90
21353;DHT22;10834;52.268;6.770;2023-04-28T07:55:46;11.50;99.90
21353;DHT22;10834;52.268;6.770;2023-04-28T07:58:33;11.40;99.90
21353;DHT22;10834;52.268;6.770;2023-04-28T08:01:19;11.30;99.90
21353;DHT22;10834;52.268;6.770;2023-04-28T08:04:05;11.30;99.90
21353;DHT22;10834;52.268;6.770;2023-04-28T08:06:52;11.30;99.90
21353;DHT22;10834;52.268;6.770;2023-04-28T08:09:38;11.70;99.90
21353;DHT22;10834;52.268;6.770;2023-04-28T08:12:26;12.80;99.90
21353;DHT22;10834;52.268;6.770;2023-04-28T08:15:12;15.50;99.90
21353;DHT22;10834;52.268;6.770;2023-04-28T08:17:59;16.80;99.90
21353;DHT22;10834;52.268;6.770;2023-04-28T08:20:45;16.70;99.90
21353;DHT22;10834;52.268;6.770;2023-04-28T08:23:31;16.30;99.90
21353;DHT22;10834;52.268;6.770;2023-04-28T08:26:17;15.70;99.90
21353;DHT22;10834;52.268;6.770;2023-04-28T08:29:03;15.00;99.90
21353;DHT22;10834;52.268;6.770;2023-04-28T08:31:50;14.50;99.90
21353;DHT22;10834;52.268;6.770;2023-04-28T08:34:36;14.00;99.90
21353;DHT22;10834;52.268;6.770;2023-04-28T08:37:22;13.80;99.90
21353;DHT22;10834;52.268;6.770;2023-04-28T08:40:08;13.50;99.90
21353;DHT22;10834;52.268;6.770;2023-04-28T08:42:54;13.40;99.90
21353;DHT22;10834;52.268;6.770;2023-04-28T08:45:41;13.40;99.90
21353;DHT22;10834;52.268;6.770;2023-04-28T08:48:29;13.40;99.90
21353;DHT22;10834;52.268;6.770;2023-04-28T08:51:34;13.30;99.90
21353;DHT22;10834;52.268;6.770;2023-04-28T08:54:27;13.20;99.90
21353;DHT22;10834;52.268;6.770;2023-04-28T08:57:15;13.10;99.90
21353;DHT22;10834;52.268;6.770;2023-04-28T09:00:02;13.10;99.90
21353;DHT22;10834;52.268;6.770;2023-04-28T09:02:49;13.00;99.90
21353;DHT22;10834;52.268;6.770;2023-04-28T09:05:35;13.00;99.90
21353;DHT22;10834;52.268;6.770;2023-04-28T09:08:21;12.90;99.90
21353;DHT22;10834;52.268;6.770;2023-04-28T09:11:09;12.80;99.90
21353;DHT22;10834;52.268;6.770;2023-04-28T09:14:11;12.80;99.90
21353;DHT22;10834;52.268;6.770;2023-04-28T09:16:58;12.90;99.90
21353;DHT22;10834;52.268;6.770;2023-04-28T09:19:44;13.10;99.90
21353;DHT22;10834;52.268;6.770;2023-04-28T09:22:30;13.40;99.90
21353;DHT22;10834;52.268;6.770;2023-04-28T09:25:18;13.60;99.90
21353;DHT22;10834;52.268;6.770;2023-04-28T09:28:32;13.60;99.90
21353;DHT22;10834;52.268;6.770;2023-04-28T09:31:23;13.60;99.90
21353;DHT22;10834;52.268;6.770;2023-04-28T09:34:13;13.60;99.90
21353;DHT22;10834;52.268;6.770;2023-04-28T09:36:59;13.70;99.90
21353;DHT22;10834;52.268;6.770;2023-04-28T09:39:53;13.70;99.90
21353;DHT22;10834;52.268;6.770;2023-04-28T09:42:41;13.80;99.90
21353;DHT22;10834;52.268;6.770;2023-04-28T09:45:38;14.00;99.90
21353;DHT22;10834;52.268;6.770;2023-04-28T09:48:35;14.30;99.90
21353;DHT22;10834;52.268;6.770;2023-04-28T09:51:21;14.50;99.90
21353;DHT22;10834;52.268;6.770;2023-04-28T09:54:07;14.70;99.90
21353;DHT22;10834;52.268;6.770;2023-04-28T09:56:54;14.90;99.90
21353;DHT22;10834;52.268;6.770;2023-04-28T09:59:42;15.30;99.90
21353;DHT22;10834;52.268;6.770;2023-04-28T10:02:34;15.60;99.90
21353;DHT22;10834;52.268;6.770;2023-04-28T10:05:20;15.90;99.90
21353;DHT22;10834;52.268;6.770;2023-04-28T10:08:07;16.40;99.90
21353;DHT22;10834;52.268;6.770;2023-04-28T10:10:54;16.60;99.90
21353;DHT22;10834;52.268;6.770;2023-04-28T10:13:42;16.40;99.90
21353;DHT22;10834;52.268;6.770;2023-04-28T10:16:32;16.20;99.90
21353;DHT22;10834;52.268;6.770;2023-04-28T10:19:18;16.20;99.90
21353;DHT22;10834;52.268;6.770;2023-04-28T10:28:05;16.30;99.90
21353;DHT22;10834;52.268;6.770;2023-04-28T10:31:11;16.60;99.90
21353;DHT22;10834;52.268;6.770;2023-04-28T10:34:20;17.40;99.90
21353;DHT22;10834;52.268;6.770;2023-04-28T10:37:06;18.40;99.90
21353;DHT22;10834;52.268;6.770;2023-04-28T10:40:30;19.70;99.90
21353;DHT22;10834;52.268;6.770;2023-04-28T10:46:15;20.70;94.70
21353;DHT22;10834;52.268;6.770;2023-04-28T10:49:01;20.70;92.80
21353;DHT22;10834;52.268;6.770;2023-04-28T10:51:47;20.50;94.00
21353;DHT22;10834;52.268;6.770;2023-04-28T10:54:34;19.90;95.20
21353;DHT22;10834;52.268;6.770;2023-04-28T10:57:20;19.30;97.40
21353;DHT22;10834;52.268;6.770;2023-04-28T11:00:25;18.60;99.90
21353;DHT22;10834;52.268;6.770;2023-04-28T11:03:46;17.90;99.90
21353;DHT22;10834;52.268;6.770;2023-04-28T11:06:40;17.30;99.90
21353;DHT22;10834;52.268;6.770;2023-04-28T11:12:18;16.50;99.90
21353;DHT22;10834;52.268;6.770;2023-04-28T11:15:11;16.30;99.90
21353;DHT22;10834;52.268;6.770;2023-04-28T11:17:58;16.20;99.90
21353;DHT22;10834;52.268;6.770;2023-04-28T11:20:49;16.00;99.90
21353;DHT22;10834;52.268;6.770;2023-04-28T11:23:42;15.80;99.90
21353;DHT22;10834;52.268;6.770;2023-04-28T11:26:28;15.70;99.90
21353;DHT22;10834;52.268;6.770;2023-04-28T11:29:14;15.70;99.90
21353;DHT22;10834;52.268;6.770;2023-04-28T11:32:01;15.70;99.90
21353;DHT22;10834;52.268;6.770;2023-04-28T11:34:50;15.70;99.90
21353;DHT22;10834;52.268;6.770;2023-04-28T11:37:36;15.60;99.90
21353;DHT22;10834;52.268;6.770;2023-04-28T11:40:22;15.50;99.90
21353;DHT22;10834;52.268;6.770;2023-04-28T11:43:08;15.50;99.90
21353;DHT22;10834;52.268;6.770;2023-04-28T11:45:55;15.60;99.90
21353;DHT22;10834;52.268;6.770;2023-04-28T11:48:42;15.80;99.90
21353;DHT22;10834;52.268;6.770;2023-04-28T11:51:36;16.20;99.90
21353;DHT22;10834;52.268;6.770;2023-04-28T11:54:25;16.50;99.90
21353;DHT22;10834;52.268;6.770;2023-04-28T11:57:18;16.60;99.90
21353;DHT22;10834;52.268;6.770;2023-04-28T12:00:14;16.50;99.90
21353;DHT22;10834;52.268;6.770;2023-04-28T12:03:09;16.40;99.90
21353;DHT22;10834;52.268;6.770;2023-04-28T12:05:55;16.20;99.90
21353;DHT22;10834;52.268;6.770;2023-04-28T12:08:41;16.00;99.90
21353;DHT22;10834;52.268;6.770;2023-04-28T12:11:28;15.70;99.90
21353;DHT22;10834;52.268;6.770;2023-04-28T12:14:13;15.60;99.90
21353;DHT22;10834;52.268;6.770;2023-04-28T12:17:00;15.40;99.90
21353;DHT22;10834;52.268;6.770;2023-04-28T12:19:46;15.30;99.90
21353;DHT22;10834;52.268;6.770;2023-04-28T12:22:49;15.10;99.90
21353;DHT22;10834;52.268;6.770;2023-04-28T12:25:45;15.00;99.90
21353;DHT22;10834;52.268;6.770;2023-04-28T12:28:36;15.00;99.90
21353;DHT22;10834;52.268;6.770;2023-04-28T12:31:23;15.10;99.90
21353;DHT22;10834;52.268;6.770;2023-04-28T12:34:09;15.20;99.90
21353;DHT22;10834;52.268;6.770;2023-04-28T12:36:55;15.20;99.90
21353;DHT22;10834;52.268;6.770;2023-04-28T12:39:41;15.20;99.90
21353;DHT22;10834;52.268;6.770;2023-04-28T12:42:27;15.10;99.90
21353;DHT22;10834;52.268;6.770;2023-04-28T12:45:14;15.20;99.90
21353;DHT22;10834;52.268;6.770;2023-04-28T12:48:00;15.10;99.90
21353;DHT22;10834;52.268;6.770;2023-04-28T12:50:46;15.20;99.90
21353;DHT22;10834;52.268;6.770;2023-04-28T12:53:32;15.20;99.90
21353;DHT22;10834;52.268;6.770;2023-04-28T12:56:19;15.20;99.90
21353;DHT22;10834;52.268;6.770;2023-04-28T12:59:05;15.20;99.90
21353;DHT22;10834;52.268;6.770;2023-04-28T13:01:51;15.20;99.90
21353;DHT22;10834;52.268;6.770;2023-04-28T13:04:37;15.30;99.90
21353;DHT22;10834;52.268;6.770;2023-04-28T13:07:23;15.40;99.90
21353;DHT22;10834;52.268;6.770;2023-04-28T13:10:09;15.60;99.90
21353;DHT22;10834;52.268;6.770;2023-04-28T13:12:55;15.80;99.90
21353;DHT22;10834;52.268;6.770;2023-04-28T13:15:41;16.10;99.90
21353;DHT22;10834;52.268;6.770;2023-04-28T13:18:27;16.20;99.90
21353;DHT22;10834;52.268;6.770;2023-04-28T13:21:14;16.40;99.90
21353;DHT22;10834;52.268;6.770;2023-04-28T13:24:01;16.60;99.90
21353;DHT22;10834;52.268;6.770;2023-04-28T13:26:48;16.90;99.90
21353;DHT22;10834;52.268;6.770;2023-04-28T13:29:35;17.10;99.90
21353;DHT22;10834;52.268;6.770;2023-04-28T13:32:21;17.10;99.90
21353;DHT22;10834;52.268;6.770;2023-04-28T13:35:07;17.10;99.90
21353;DHT22;10834;52.268;6.770;2023-04-28T13:37:54;17.00;99.90
21353;DHT22;10834;52.268;6.770;2023-04-28T13:40:46;16.90;99.90
21353;DHT22;10834;52.268;6.770;2023-04-28T13:43:32;16.80;99.90
21353;DHT22;10834;52.268;6.770;2023-04-28T13:46:19;16.90;99.90
21353;DHT22;10834;52.268;6.770;2023-04-28T13:49:05;16.80;99.90
21353;DHT22;10834;52.268;6.770;2023-04-28T13:51:51;16.60;99.90
21353;DHT22;10834;52.268;6.770;2023-04-28T13:54:38;16.30;99.90
21353;DHT22;10834;52.268;6.770;2023-04-28T13:57:24;16.10;99.90
21353;DHT22;10834;52.268;6.770;2023-04-28T14:00:11;15.90;99.90
21353;DHT22;10834;52.268;6.770;2023-04-28T14:02:58;15.80;99.90
21353;DHT22;10834;52.268;6.770;2023-04-28T14:05:44;15.80;99.90
21353;DHT22;10834;52.268;6.770;2023-04-28T14:08:30;15.70;99.90
21353;DHT22;10834;52.268;6.770;2023-04-28T14:11:16;15.70;99.90
21353;DHT22;10834;52.268;6.770;2023-04-28T14:14:03;15.70;99.90
21353;DHT22;10834;52.268;6.770;2023-04-28T14:16:49;15.70;99.90
21353;DHT22;10834;52.268;6.770;2023-04-28T14:19:35;15.80;99.90
21353;DHT22;10834;52.268;6.770;2023-04-28T14:22:21;15.80;99.90
21353;DHT22;10834;52.268;6.770;2023-04-28T14:25:08;15.80;99.90
21353;DHT22;10834;52.268;6.770;2023-04-28T14:27:54;15.70;99.90
21353;DHT22;10834;52.268;6.770;2023-04-28T14:30:40;15.70;99.90
21353;DHT22;10834;52.268;6.770;2023-04-28T14:33:27;15.70;99.90
21353;DHT22;10834;52.268;6.770;2023-04-28T14:36:13;15.60;99.90
21353;DHT22;10834;52.268;6.770;2023-04-28T14:38:59;15.50;99.90
21353;DHT22;10834;52.268;6.770;2023-04-28T14:41:45;15.50;99.90
21353;DHT22;10834;52.268;6.770;2023-04-28T14:44:31;15.50;99.90
21353;DHT22;10834;52.268;6.770;2023-04-28T14:47:17;15.60;99.90
21353;DHT22;10834;52.268;6.770;2023-04-28T14:50:04;15.60;99.90
21353;DHT22;10834;52.268;6.770;2023-04-28T14:52:50;15.80;99.90
21353;DHT22;10834;52.268;6.770;2023-04-28T14:55:36;16.00;99.90
21353;DHT22;10834;52.268;6.770;2023-04-28T14:58:22;16.20;99.90
21353;DHT22;10834;52.268;6.770;2023-04-28T15:01:08;16.30;99.90
21353;DHT22;10834;52.268;6.770;2023-04-28T15:03:54;16.30;99.90
21353;DHT22;10834;52.268;6.770;2023-04-28T15:06:40;16.30;99.90
21353;DHT22;10834;52.268;6.770;2023-04-28T15:09:27;16.10;99.90
21353;DHT22;10834;52.268;6.770;2023-04-28T15:12:13;15.90;99.90
21353;DHT22;10834;52.268;6.770;2023-04-28T15:14:59;15.80;99.90
21353;DHT22;10834;52.268;6.770;2023-04-28T15:17:45;15.60;99.90
21353;DHT22;10834;52.268;6.770;2023-04-28T15:20:32;15.50;99.90
21353;DHT22;10834;52.268;6.770;2023-04-28T15:23:18;15.40;99.90
21353;DHT22;10834;52.268;6.770;2023-04-28T15:26:05;15.40;99.90
21353;DHT22;10834;52.268;6.770;2023-04-28T15:28:51;15.30;99.90
21353;DHT22;10834;52.268;6.770;2023-04-28T15:31:38;15.30;99.90
21353;DHT22;10834;52.268;6.770;2023-04-28T15:34:25;15.40;99.90
21353;DHT22;10834;52.268;6.770;2023-04-28T15:37:44;15.40;99.90
21353;DHT22;10834;52.268;6.770;2023-04-28T15:40:32;15.40;99.90
21353;DHT22;10834;52.268;6.770;2023-04-28T15:43:18;15.50;99.90
21353;DHT22;10834;52.268;6.770;2023-04-28T15:46:05;15.60;99.90
21353;DHT22;10834;52.268;6.770;2023-04-28T15:48:55;15.60;99.90
21353;DHT22;10834;52.268;6.770;2023-04-28T15:51:42;15.50;99.90
21353;DHT22;10834;52.268;6.770;2023-04-28T15:54:28;15.50;99.90
21353;DHT22;10834;52.268;6.770;2023-04-28T15:57:14;15.40;99.90
21353;DHT22;10834;52.268;6.770;2023-04-28T16:00:00;15.30;99.90
21353;DHT22;10834;52.268;6.770;2023-04-28T16:02:46;15.20;99.90
21353;DHT22;10834;52.268;6.770;2023-04-28T16:05:33;15.10;99.90
21353;DHT22;10834;52.268;6.770;2023-04-28T16:08:19;15.00;99.90
21353;DHT22;10834;52.268;6.770;2023-04-28T16:11:09;14.90;99.90
21353;DHT22;10834;52.268;6.770;2023-04-28T16:14:02;14.80;99.90
21353;DHT22;10834;52.268;6.770;2023-04-28T16:16:48;14.70;99.90
21353;DHT22;10834;52.268;6.770;2023-04-28T16:19:35;14.70;99.90
21353;DHT22;10834;52.268;6.770;2023-04-28T16:22:21;14.60;99.90
21353;DHT22;10834;52.268;6.770;2023-04-28T16:25:08;14.60;99.90
21353;DHT22;10834;52.268;6.770;2023-04-28T16:27:55;14.60;99.90
21353;DHT22;10834;52.268;6.770;2023-04-28T16:30:42;14.50;99.90
21353;DHT22;10834;52.268;6.770;2023-04-28T16:33:28;14.50;99.90
21353;DHT22;10834;52.268;6.770;2023-04-28T16:36:14;14.40;99.90
21353;DHT22;10834;52.268;6.770;2023-04-28T16:39:00;14.30;99.90
21353;DHT22;10834;52.268;6.770;2023-04-28T16:41:46;14.30;99.90
21353;DHT22;10834;52.268;6.770;2023-04-28T16:44:33;14.20;99.90
21353;DHT22;10834;52.268;6.770;2023-04-28T16:47:19;14.20;99.90
21353;DHT22;10834;52.268;6.770;2023-04-28T16:50:06;14.10;99.90
21353;DHT22;10834;52.268;6.770;2023-04-28T16:52:54;14.10;99.90
21353;DHT22;10834;52.268;6.770;2023-04-28T16:55:40;14.10;99.90
21353;DHT22;10834;52.268;6.770;2023-04-28T16:58:26;14.10;99.90
21353;DHT22;10834;52.268;6.770;2023-04-28T17:01:12;14.20;99.90
21353;DHT22;10834;52.268;6.770;2023-04-28T17:03:58;14.20;99.90
21353;DHT22;10834;52.268;6.770;2023-04-28T17:06:44;14.20;99.90
21353;DHT22;10834;52.268;6.770;2023-04-28T17:09:31;14.20;99.90
21353;DHT22;10834;52.268;6.770;2023-04-28T17:12:17;14.20;99.90
21353;DHT22;10834;52.268;6.770;2023-04-28T17:15:06;14.20;99.90
21353;DHT22;10834;52.268;6.770;2023-04-28T17:17:52;14.20;99.90
21353;DHT22;10834;52.268;6.770;2023-04-28T17:20:38;14.10;99.90
21353;DHT22;10834;52.268;6.770;2023-04-28T17:23:24;14.10;99.90
21353;DHT22;10834;52.268;6.770;2023-04-28T17:26:12;14.00;99.90
21353;DHT22;10834;52.268;6.770;2023-04-28T17:28:59;13.90;99.90
21353;DHT22;10834;52.268;6.770;2023-04-28T17:31:45;13.90;99.90
21353;DHT22;10834;52.268;6.770;2023-04-28T17:34:31;13.80;99.90
21353;DHT22;10834;52.268;6.770;2023-04-28T17:37:18;13.80;99.90
21353;DHT22;10834;52.268;6.770;2023-04-28T17:40:04;13.70;99.90
21353;DHT22;10834;52.268;6.770;2023-04-28T17:42:50;13.70;99.90
21353;DHT22;10834;52.268;6.770;2023-04-28T17:45:38;13.70;99.90
21353;DHT22;10834;52.268;6.770;2023-04-28T17:48:25;13.60;99.90
21353;DHT22;10834;52.268;6.770;2023-04-28T17:51:11;13.60;99.90
21353;DHT22;10834;52.268;6.770;2023-04-28T17:53:56;13.60;99.90